Terminal Aerodrome Forecast
Issued by NWS

Home | Current Version | Previous Version | Text Only | Print | Product List | Glossary On
Versions: 1 2 3 4 5 6 7 8 9 10 11 12 13 14 15 16 17
000
FTUS43 KSGF 271700
TAFJLN
TAF
KJLN 271720Z 2718/2818 19020G30KT P6SM BKN250
     FM272200 21012G17KT P6SM BKN250
     FM280100 23009KT P6SM SCT050 BKN150
      TEMPO 2803/2807 5SM -TSRA BR BKN040CB
     FM280700 34009G15KT P6SM VCSH FEW020 BKN040 OVC100
     FM281000 01006KT P6SM SCT200=

USA.gov is the U.S. government's official web portal to all federal, state and local government web resources and services.